Time;durP1;ratioP1;P1;durP2;ratioP2;P2;SDS_P1;SDS_P2;PMS_P1;PMS_P2;Temp;Humidity;BMP_temperature;BMP_pressure;BME280_temperature;BME280_humidity;BME280_pressure;Samples;Min_cycle;Max_cycle;Signal;HPM_P1;HPM_P2
2022/09/19 00:01:31;;;;;;;15.08;7.47;;;;;;;10.09;88.09;99072.81;1615610;87;25765;-74
2022/09/19 00:04:02;;;;;;;23.05;21.07;;;;;;;10.07;88.01;99077.77;1610303;87;25629;-72
2022/09/19 00:06:31;;;;;;;55.12;51.23;;;;;;;10.04;87.88;99074.38;1587290;89;25712;-72
2022/09/19 00:08:58;;;;;;;43.68;40.40;;;;;;;10.03;87.82;99067.98;1587293;89;27910;-73
2022/09/19 00:11:28;;;;;;;61.05;56.58;;;;;;;10.01;88.00;99071.02;1587177;89;25738;-73
2022/09/19 00:13:56;;;;;;;57.03;52.53;;;;;;;10.01;88.05;99066.97;1587344;89;25593;-74
2022/09/19 00:16:33;;;;;;;12.90;9.88;;;;;;;9.98;87.96;99058.75;1580318;89;25634;-73
2022/09/19 00:19:04;;;;;;;13.03;7.58;;;;;;;9.99;87.93;99071.89;1587257;89;25597;-74
2022/09/19 00:21:38;;;;;;;14.78;7.40;;;;;;;9.99;87.97;99071.11;1590774;88;27359;-74
2022/09/19 00:26:55;;;;;;;14.65;8.15;;;;;;;9.96;87.90;99077.17;1609206;87;25760;-74
2022/09/19 00:29:19;;;;;;;10.35;6.75;;;;;;;9.90;87.64;99063.11;1639752;86;25802;-74
2022/09/19 00:31:46;;;;;;;14.15;8.90;;;;;;;9.86;87.48;99081.11;1639980;86;25425;-74
2022/09/19 00:34:15;;;;;;;16.90;15.20;;;;;;;9.82;87.40;99079.61;1640037;86;27459;-73
2022/09/19 00:36:42;;;;;;;10.60;7.00;;;;;;;9.79;87.26;99073.55;1609499;87;32955;-73
2022/09/19 00:39:11;;;;;;;24.10;21.80;;;;;;;9.74;87.04;99075.11;1639976;86;25587;-73
2022/09/19 00:41:39;;;;;;;43.85;40.60;;;;;;;9.70;87.03;99076.34;1640234;86;35115;-73
2022/09/19 00:44:26;;;;;;;10.38;4.55;;;;;;;9.67;87.01;99077.00;1640130;87;25695;-73
2022/09/19 00:47:07;;;;;;;11.28;8.40;;;;;;;9.63;86.94;99078.77;1583300;88;27399;-73
2022/09/19 00:49:39;;;;;;;10.25;4.10;;;;;;;9.60;86.81;99080.77;1609357;87;25916;-74
2022/09/19 00:52:13;;;;;;;6.33;3.77;;;;;;;9.56;86.71;99086.63;1640041;86;25577;-73
2022/09/19 00:54:44;;;;;;;7.42;4.75;;;;;;;9.53;86.74;99081.34;1639216;86;25721;-73
2022/09/19 00:57:14;;;;;;;7.25;4.67;;;;;;;9.49;86.57;99080.97;1640141;86;25628;-73
2022/09/19 00:59:46;;;;;;;16.07;4.33;;;;;;;9.45;86.49;99090.30;1640066;86;27417;-74
2022/09/19 01:02:18;;;;;;;8.83;4.25;;;;;;;9.44;86.66;99088.70;1590672;90;25597;-73
2022/09/19 01:04:44;;;;;;;6.33;3.85;;;;;;;9.41;86.37;99087.23;1602793;87;25617;-73
2022/09/19 01:07:36;;;;;;;24.12;22.42;;;;;;;9.38;86.54;99083.30;1601525;88;26122;-75
2022/09/19 01:10:29;;;;;;;9.18;4.00;;;;;;;9.37;86.64;99077.66;1622092;88;25565;-72
2022/09/19 01:13:21;;;;;;;18.77;17.42;;;;;;;9.33;86.52;99080.23;1612158;87;27407;-73
2022/09/19 01:15:55;;;;;;;7.10;5.95;;;;;;;9.31;86.48;99081.66;1612111;87;25646;-75
2022/09/19 01:18:30;;;;;;;7.95;3.95;;;;;;;9.31;86.56;99077.62;1579853;89;25672;-74
2022/09/19 01:21:38;;;;;;;8.30;5.17;;;;;;;9.29;86.59;99079.29;1587270;88;25731;-73
2022/09/19 01:24:40;;;;;;;36.68;34.13;;;;;;;9.28;86.68;99076.38;1578456;90;25450;-73
2022/09/19 01:27:21;;;;;;;14.35;12.63;;;;;;;9.28;86.55;99075.57;1572393;90;27365;-73
2022/09/19 01:30:13;;;;;;;31.60;29.50;;;;;;;9.25;86.31;99075.69;1579440;90;25732;-73
2022/09/19 01:33:06;;;;;;;60.10;55.90;;;;;;;9.24;86.36;99076.02;1579580;89;25716;-74
2022/09/19 01:35:37;;;;;;;11.33;4.70;;;;;;;9.21;86.33;99072.08;1590533;89;26197;-74
2022/09/19 01:38:15;;;;;;;9.28;3.75;;;;;;;9.20;86.39;99074.53;1610084;88;25305;-74
2022/09/19 01:40:43;;;;;;;10.95;5.10;;;;;;;9.18;86.36;99077.31;1609464;88;27415;-74
2022/09/19 01:43:16;;;;;;;6.92;3.75;;;;;;;9.15;86.28;99068.77;1609052;89;25748;-74
2022/09/19 01:45:44;;;;;;;10.60;6.58;;;;;;;9.12;86.23;99076.16;1565602;90;25831;-74
2022/09/19 01:48:37;;;;;;;9.73;4.17;;;;;;;9.11;86.21;99080.56;1584968;89;25702;-74
2022/09/19 01:51:16;;;;;;;7.10;3.37;;;;;;;9.07;86.28;99087.72;1580522;89;25650;-76
2022/09/19 01:54:11;;;;;;;7.85;3.95;;;;;;;9.04;86.25;99084.32;1573612;90;27966;-74
2022/09/19 01:56:58;;;;;;;8.55;5.03;;;;;;;9.01;86.54;99084.44;1566872;91;25651;-73
2022/09/19 01:59:55;;;;;;;10.85;5.78;;;;;;;8.96;86.18;99082.70;1614737;88;25704;-73
2022/09/19 02:02:49;;;;;;;10.32;4.45;;;;;;;8.94;86.21;99088.21;1617615;88;25757;-76
2022/09/19 02:05:31;;;;;;;6.55;4.45;;;;;;;8.90;86.40;99081.88;1617931;88;25512;-76
2022/09/19 02:08:19;;;;;;;8.18;4.80;;;;;;;8.88;86.37;99092.20;1609607;88;27419;-75
2022/09/19 02:10:54;;;;;;;10.80;6.17;;;;;;;8.86;86.29;99091.75;1617764;88;25773;-74
2022/09/19 02:13:27;;;;;;;10.10;5.35;;;;;;;8.82;86.26;99095.66;1617649;88;25603;-76
2022/09/19 02:16:18;;;;;;;28.35;25.70;;;;;;;8.79;86.42;99097.09;1617771;88;25818;-74
2022/09/19 02:18:54;;;;;;;10.53;5.33;;;;;;;8.78;86.52;99100.91;1617847;88;25824;-73
2022/09/19 02:21:36;;;;;;;11.83;3.67;;;;;;;8.77;86.58;99095.84;1600795;87;27362;-75
2022/09/19 02:24:08;;;;;;;8.80;3.37;;;;;;;8.75;86.44;99101.56;1604713;87;26116;-73
2022/09/19 02:26:39;;;;;;;7.95;4.95;;;;;;;8.70;86.25;99105.79;1607224;89;25606;-74
2022/09/19 02:29:13;;;;;;;11.90;4.30;;;;;;;8.67;86.34;99109.13;1640290;86;25570;-73
2022/09/19 02:31:40;;;;;;;6.15;3.50;;;;;;;8.65;86.34;99115.41;1640350;86;25443;-73
2022/09/19 02:34:08;;;;;;;7.45;3.83;;;;;;;8.64;86.42;99112.47;1640282;86;27343;-73
2022/09/19 02:36:52;;;;;;;9.58;5.20;;;;;;;8.59;86.19;99114.78;1640131;86;26513;-73
2022/09/19 02:39:30;;;;;;;11.18;7.35;;;;;;;8.56;86.20;99110.59;1609496;87;25443;-73
2022/09/19 02:42:14;;;;;;;17.05;15.40;;;;;;;8.52;86.22;99104.28;1635558;86;25773;-74
2022/09/19 02:45:10;;;;;;;12.55;4.92;;;;;;;8.48;86.14;99111.42;1643461;86;25274;-75
2022/09/19 02:48:15;;;;;;;14.28;5.15;;;;;;;8.41;86.08;99112.70;1580700;90;27526;-75
2022/09/19 02:51:05;;;;;;;11.30;5.08;;;;;;;8.38;86.12;99113.91;1556222;92;25571;-75
2022/09/19 02:53:46;;;;;;;6.75;3.92;;;;;;;8.31;86.19;99115.75;1586078;90;25756;-75
2022/09/19 02:56:15;;;;;;;7.45;4.28;;;;;;;8.30;86.22;99113.38;1586472;90;25729;-74
2022/09/19 02:58:47;;;;;;;7.10;4.28;;;;;;;8.25;86.24;99115.68;1586595;89;25834;-74
2022/09/19 03:01:21;;;;;;;7.17;3.87;;;;;;;8.22;86.43;99114.44;1557793;92;27459;-75
2022/09/19 03:04:14;;;;;;;14.33;5.12;;;;;;;8.20;86.43;99117.20;1586171;89;25568;-76
2022/09/19 03:06:59;;;;;;;10.48;5.80;;;;;;;8.19;86.58;99115.07;1586508;90;25738;-75
2022/09/19 03:09:30;;;;;;;8.38;4.90;;;;;;;8.16;86.49;99121.09;1586454;89;25657;-76
2022/09/19 03:12:18;;;;;;;11.03;5.30;;;;;;;8.17;86.60;99117.30;1565481;91;25590;-75
2022/09/19 03:14:42;;;;;;;11.73;5.95;;;;;;;8.15;86.73;99123.54;1554377;90;27410;-75
2022/09/19 03:17:11;;;;;;;9.50;5.33;;;;;;;8.13;86.76;99118.25;1560568;91;25619;-74
2022/09/19 03:19:39;;;;;;;6.55;4.97;;;;;;;8.12;86.80;99118.82;1560621;91;25904;-74
2022/09/19 03:22:06;;;;;;;10.05;6.53;;;;;;;8.12;86.75;99118.82;1557715;91;25803;-74
2022/09/19 03:24:35;;;;;;;10.10;6.80;;;;;;;8.11;86.86;99127.22;1611572;87;25494;-74
2022/09/19 03:27:01;;;;;;;11.53;6.10;;;;;;;8.08;86.83;99120.56;1639935;86;27514;-74
2022/09/19 03:29:28;;;;;;;9.98;6.03;;;;;;;8.04;86.83;99123.10;1639790;86;25712;-74
2022/09/19 03:31:54;;;;;;;14.43;6.37;;;;;;;8.06;86.97;99128.17;1609363;87;25484;-74
2022/09/19 03:34:21;;;;;;;11.20;7.33;;;;;;;8.06;87.00;99125.48;1639825;86;26211;-74
2022/09/19 03:36:47;;;;;;;12.78;9.85;;;;;;;8.07;87.06;99123.03;1632779;86;25775;-74
2022/09/19 03:39:14;;;;;;;18.42;10.70;;;;;;;8.06;86.98;99127.39;1639901;86;28045;-74
2022/09/19 03:41:41;;;;;;;12.30;7.50;;;;;;;8.04;87.06;99129.05;1639769;86;25503;-74
2022/09/19 03:44:08;;;;;;;8.90;6.15;;;;;;;8.01;87.10;99129.69;1605204;87;25443;-74
2022/09/19 03:46:35;;;;;;;11.90;7.75;;;;;;;8.00;87.05;99130.78;1639889;86;25798;-74
2022/09/19 03:49:03;;;;;;;13.50;7.35;;;;;;;7.99;87.16;99135.39;1639922;86;25632;-74
2022/09/19 03:51:32;;;;;;;16.27;9.35;;;;;;;7.98;87.20;99133.80;1639881;86;27477;-74
2022/09/19 03:53:58;;;;;;;16.05;12.28;;;;;;;7.96;87.21;99129.86;1590497;90;25634;-75
2022/09/19 03:56:25;;;;;;;21.25;15.93;;;;;;;7.98;87.28;99135.70;1617519;87;25646;-75
2022/09/19 03:58:51;;;;;;;18.50;12.15;;;;;;;7.97;87.40;99140.31;1617454;87;25622;-75
2022/09/19 04:01:17;;;;;;;13.10;9.75;;;;;;;7.97;87.47;99139.53;1617616;87;25492;-75
2022/09/19 04:03:44;;;;;;;14.15;8.53;;;;;;;7.97;87.43;99136.83;1612242;87;27535;-75
2022/09/19 04:06:11;;;;;;;12.20;7.53;;;;;;;7.98;87.42;99139.74;1611867;87;25642;-75
2022/09/19 04:08:37;;;;;;;15.78;9.50;;;;;;;7.96;87.49;99140.63;1612254;87;25471;-74
2022/09/19 04:11:04;;;;;;;17.15;8.25;;;;;;;7.97;87.54;99142.22;1609244;87;25636;-74
2022/09/19 04:13:33;;;;;;;17.82;9.05;;;;;;;7.96;87.52;99141.41;1639787;86;25472;-74
2022/09/19 04:16:00;;;;;;;18.90;12.33;;;;;;;7.96;87.45;99152.17;1639855;86;27424;-75
2022/09/19 04:18:28;;;;;;;17.50;10.85;;;;;;;7.96;87.52;99146.02;1639804;86;25721;-75
2022/09/19 04:20:56;;;;;;;19.48;14.65;;;;;;;7.92;87.39;99150.47;1608252;87;25630;-75
2022/09/19 04:23:25;;;;;;;14.70;8.93;;;;;;;7.92;87.59;99153.94;1589377;89;25731;-75
2022/09/19 04:25:51;;;;;;;18.82;11.78;;;;;;;7.94;87.79;99156.31;1640022;86;25664;-74
2022/09/19 04:28:18;;;;;;;19.48;16.10;;;;;;;7.95;87.77;99160.57;1617448;87;27189;-76
2022/09/19 04:30:45;;;;;;;24.12;18.95;;;;;;;7.93;87.69;99160.89;1617372;87;26562;-76
2022/09/19 04:33:14;;;;;;;23.95;19.07;;;;;;;7.91;87.55;99162.33;1597130;88;25791;-75
2022/09/19 04:35:43;;;;;;;17.65;11.10;;;;;;;7.89;87.76;99161.30;1617537;87;26208;-75
2022/09/19 04:38:16;;;;;;;16.10;11.22;;;;;;;7.89;87.57;99168.59;1617650;87;25650;-75
2022/09/19 04:40:48;;;;;;;17.62;11.05;;;;;;;7.88;87.88;99169.70;1617441;87;28046;-75
2022/09/19 04:43:18;;;;;;;14.10;9.88;;;;;;;7.89;87.78;99168.59;1617407;87;25602;-75
2022/09/19 04:45:48;;;;;;;16.95;11.30;;;;;;;7.89;87.79;99172.63;1610112;87;25649;-74
2022/09/19 04:48:16;;;;;;;18.07;9.63;;;;;;;7.88;87.86;99174.52;1609393;87;25650;-76
2022/09/19 04:50:47;;;;;;;15.18;9.78;;;;;;;7.86;87.77;99173.48;1639849;86;25672;-74
2022/09/19 04:53:16;;;;;;;17.92;10.93;;;;;;;7.87;87.83;99176.98;1639841;86;28124;-75
2022/09/19 04:55:42;;;;;;;15.05;10.23;;;;;;;7.89;88.02;99178.80;1639744;86;25505;-75
2022/09/19 04:58:10;;;;;;;17.15;9.83;;;;;;;7.89;87.97;99175.33;1639875;86;25504;-75
2022/09/19 05:00:39;;;;;;;14.35;9.20;;;;;;;7.93;88.15;99181.65;1590018;88;25675;-75
2022/09/19 05:03:13;;;;;;;17.65;10.10;;;;;;;7.92;88.09;99180.86;1612373;89;31222;-75
2022/09/19 05:05:44;;;;;;;16.60;9.30;;;;;;;7.96;88.24;99182.36;1614461;87;27354;-74
2022/09/19 05:08:15;;;;;;;16.82;11.60;;;;;;;7.97;88.22;99188.00;1614045;88;25807;-75
2022/09/19 05:10:42;;;;;;;21.37;13.32;;;;;;;7.99;88.25;99191.94;1609884;87;25789;-76
2022/09/19 05:13:09;;;;;;;15.93;10.05;;;;;;;8.03;88.10;99192.09;1622150;86;25801;-75
2022/09/19 05:15:40;;;;;;;19.62;13.15;;;;;;;8.04;87.99;99196.38;1618848;88;25612;-75
2022/09/19 05:18:04;;;;;;;19.05;14.93;;;;;;;8.06;88.06;99192.81;1619687;87;28745;-75
2022/09/19 05:20:30;;;;;;;21.23;14.60;;;;;;;8.08;88.06;99189.80;1616575;87;25489;-76
2022/09/19 05:22:58;;;;;;;18.95;13.45;;;;;;;8.14;88.28;99200.09;1590158;88;25800;-78
2022/09/19 05:25:27;;;;;;;22.82;15.55;;;;;;;8.18;87.98;99193.50;1612412;88;25625;-76
2022/09/19 05:27:56;;;;;;;13.35;10.28;;;;;;;8.18;87.72;99198.89;1590067;87;25699;-76
2022/09/19 05:30:24;;;;;;;17.62;10.75;;;;;;;8.14;87.34;99201.44;1619543;87;27973;-75
2022/09/19 05:32:54;;;;;;;15.65;11.33;;;;;;;8.18;87.66;99201.59;1617489;88;25693;-75
2022/09/19 05:35:21;;;;;;;17.48;12.55;;;;;;;8.21;87.72;99207.69;1646063;86;25242;-75
2022/09/19 05:37:47;;;;;;;19.45;11.43;;;;;;;8.24;87.67;99212.45;1645479;85;25636;-74
2022/09/19 05:40:14;;;;;;;18.67;12.13;;;;;;;8.28;87.76;99216.63;1645722;86;25728;-74
2022/09/19 05:42:43;;;;;;;19.00;12.78;;;;;;;8.29;87.35;99222.24;1612007;87;27926;-75
2022/09/19 05:45:11;;;;;;;19.92;11.85;;;;;;;8.32;87.34;99213.52;1611911;87;25579;-75
2022/09/19 05:47:39;;;;;;;20.92;12.68;;;;;;;8.36;87.50;99209.06;1601094;87;25701;-75
2022/09/19 05:50:09;;;;;;;19.05;13.20;;;;;;;8.39;87.17;99219.21;1608211;88;25636;-75
2022/09/19 05:55:28;;;;;;;17.67;11.53;;;;;;;8.42;86.77;99217.23;1643111;85;28020;-76
2022/09/19 05:57:57;;;;;;;22.03;12.57;;;;;;;8.51;87.51;99222.09;1612074;88;25612;-75
2022/09/19 06:00:26;;;;;;;24.25;13.85;;;;;;;8.56;86.87;99223.27;1611965;87;25631;-74
2022/09/19 06:02:54;;;;;;;;;;;;;;;8.58;86.61;99229.66;1606127;88;25668;-75
2022/09/19 06:05:22;;;;;;;20.48;12.20;;;;;;;8.62;86.55;99236.57;1597968;87;25659;-75
2022/09/19 06:07:48;;;;;;;20.72;12.40;;;;;;;8.63;86.52;99242.18;1611770;88;27740;-75
2022/09/19 06:10:14;;;;;;;21.10;12.47;;;;;;;8.69;86.75;99238.98;1617407;87;25704;-76
2022/09/19 06:12:41;;;;;;;21.77;12.80;;;;;;;8.72;86.29;99245.09;1644766;86;25671;-75
2022/09/19 06:15:09;;;;;;;22.20;13.53;;;;;;;8.79;86.68;99245.38;1614534;88;25550;-75
2022/09/19 06:17:36;;;;;;;20.57;13.45;;;;;;;8.86;86.62;99248.15;1614701;87;25446;-76
2022/09/19 06:20:03;;;;;;;23.12;14.35;;;;;;;8.90;86.29;99241.77;1644191;85;27884;-76
2022/09/19 06:22:30;;;;;;;21.62;13.08;;;;;;;8.95;85.92;99248.89;1642850;86;25808;-76
2022/09/19 06:24:56;;;;;;;23.55;14.30;;;;;;;9.01;85.82;99247.61;1643259;85;25490;-76
2022/09/19 06:27:23;;;;;;;22.93;13.55;;;;;;;9.05;85.57;99255.28;1643361;86;25692;-76
2022/09/19 06:29:50;;;;;;;19.85;13.83;;;;;;;9.14;85.97;99255.23;1650836;86;25431;-76
2022/09/19 06:32:18;;;;;;;19.50;13.20;;;;;;;9.20;85.52;99253.17;1616796;87;27485;-76
2022/09/19 06:34:44;;;;;;;21.05;12.10;;;;;;;9.27;85.51;99259.63;1613664;87;25585;-76
2022/09/19 06:37:11;;;;;;;19.73;13.15;;;;;;;9.31;84.96;99261.11;1607996;87;25927;-74
2022/09/19 06:39:37;;;;;;;21.17;13.15;;;;;;;9.34;84.72;99270.70;1612753;87;25734;-74
2022/09/19 06:42:05;;;;;;;19.92;12.88;;;;;;;9.37;84.74;99268.48;1612055;87;25742;-75
2022/09/19 06:44:31;;;;;;;20.75;13.85;;;;;;;9.44;84.92;99269.54;1612116;87;27343;-74
2022/09/19 06:46:59;;;;;;;18.85;13.78;;;;;;;9.53;85.33;99273.00;1611971;87;25483;-74
2022/09/19 06:49:27;;;;;;;20.50;12.60;;;;;;;9.61;84.61;99287.55;1612018;87;25708;-73
2022/09/19 06:51:54;;;;;;;15.95;11.95;;;;;;;9.66;84.40;99279.83;1612006;87;25821;-74
2022/09/19 06:54:22;;;;;;;19.87;12.28;;;;;;;9.69;83.88;99285.94;1612010;87;25621;-74
2022/09/19 06:56:49;;;;;;;20.55;11.53;;;;;;;9.68;83.75;99286.47;1612027;87;28119;-74
2022/09/19 06:59:17;;;;;;;18.12;11.68;;;;;;;9.68;82.87;99296.48;1611953;87;25239;-74
2022/09/19 07:01:45;;;;;;;16.05;12.10;;;;;;;9.61;82.60;99292.95;1612023;87;25665;-73
2022/09/19 07:04:12;;;;;;;16.77;11.33;;;;;;;9.57;82.69;99293.92;1611898;87;26282;-73
2022/09/19 07:06:39;;;;;;;16.60;12.13;;;;;;;9.54;82.80;99294.03;1612064;87;25702;-72
2022/09/19 07:09:08;;;;;;;19.67;13.95;;;;;;;9.58;83.25;99298.22;1618893;87;27416;-72
2022/09/19 07:11:36;;;;;;;18.62;12.90;;;;;;;9.58;83.07;99300.91;1611897;87;25603;-72
2022/09/19 07:14:04;;;;;;;21.93;13.38;;;;;;;9.59;82.98;99303.30;1611941;87;25414;-73
2022/09/19 07:16:32;;;;;;;19.92;13.32;;;;;;;9.61;83.34;99310.50;1608190;87;25921;-73
2022/09/19 07:18:58;;;;;;;27.80;14.90;;;;;;;9.65;83.70;99310.63;1612135;87;25800;-73
2022/09/19 07:21:25;;;;;;;21.17;13.60;;;;;;;9.72;83.56;99310.91;1612306;87;27626;-73
2022/09/19 07:23:52;;;;;;;20.25;13.35;;;;;;;9.76;83.32;99313.77;1624068;86;25825;-73
2022/09/19 07:26:18;;;;;;;18.90;13.18;;;;;;;9.76;82.67;99320.52;1624059;86;25469;-73
2022/09/19 07:28:44;;;;;;;15.88;12.43;;;;;;;9.68;82.22;99321.57;1615570;87;26174;-72
2022/09/19 07:31:11;;;;;;;20.27;12.95;;;;;;;9.64;82.25;99318.52;1620678;87;25784;-72
2022/09/19 07:33:37;;;;;;;20.97;13.40;;;;;;;9.60;82.24;99331.07;1619362;87;27384;-72
2022/09/19 07:36:07;;;;;;;23.18;14.38;;;;;;;9.51;82.08;99329.20;1616824;87;25455;-75
2022/09/19 07:38:33;;;;;;;20.10;13.32;;;;;;;9.45;82.33;99329.70;1614858;87;25472;-75
2022/09/19 07:41:03;;;;;;;17.50;13.40;;;;;;;9.45;82.73;99333.22;1617717;86;26179;-74
2022/09/19 07:43:30;;;;;;;21.15;14.07;;;;;;;9.48;83.15;99339.86;1617693;87;25944;-73
2022/09/19 07:45:56;;;;;;;23.20;13.65;;;;;;;9.51;82.92;99343.27;1616645;87;27317;-75
2022/09/19 07:48:22;;;;;;;21.65;14.78;;;;;;;9.47;82.62;99343.13;1618770;87;25434;-75
2022/09/19 07:50:49;;;;;;;23.22;14.35;;;;;;;9.46;82.80;99349.62;1610639;87;25784;-74
2022/09/19 07:53:21;;;;;;;23.05;14.93;;;;;;;9.45;82.58;99349.41;1615891;87;26220;-74
2022/09/19 07:55:53;;;;;;;20.48;13.38;;;;;;;9.38;82.33;99348.31;1618028;87;25383;-74
2022/09/19 07:58:22;;;;;;;23.18;13.28;;;;;;;9.36;82.42;99356.73;1616723;87;27908;-74
2022/09/19 08:00:50;;;;;;;23.25;14.45;;;;;;;9.30;82.82;99356.13;1619266;87;33494;-74
2022/09/19 08:03:19;;;;;;;23.70;15.10;;;;;;;9.25;82.08;99365.75;1612842;87;25755;-75
2022/09/19 08:05:49;;;;;;;26.17;17.80;;;;;;;9.21;82.52;99358.61;1607617;87;25813;-75
2022/09/19 08:08:19;;;;;;;43.05;25.50;;;;;;;9.20;82.67;99363.80;1614734;87;25783;-75
2022/09/19 08:10:45;;;;;;;32.20;20.82;;;;;;;9.20;83.02;99369.19;1615180;87;27390;-74
2022/09/19 08:13:14;;;;;;;27.90;16.77;;;;;;;9.23;83.44;99369.88;1617208;87;26350;-73
2022/09/19 08:15:43;;;;;;;24.00;15.95;;;;;;;9.24;83.14;99374.16;1619634;86;25684;-74
2022/09/19 08:18:17;;;;;;;25.83;17.43;;;;;;;9.25;83.17;99381.94;1623886;87;25715;-74
2022/09/19 08:20:44;;;;;;;27.93;17.12;;;;;;;9.27;83.20;99380.27;1615581;87;26323;-72
2022/09/19 08:23:14;;;;;;;25.95;15.25;;;;;;;9.30;83.62;99379.63;1616647;88;27445;-72
2022/09/19 08:25:46;;;;;;;23.98;16.17;;;;;;;9.30;83.31;99375.02;1617606;87;25942;-68
2022/09/19 08:28:17;;;;;;;20.55;14.07;;;;;;;9.31;83.22;99387.41;1614357;87;25752;-73
2022/09/19 08:30:45;;;;;;;21.85;13.75;;;;;;;9.34;83.23;99391.36;1615240;87;25627;-72
2022/09/19 08:33:12;;;;;;;17.02;11.85;;;;;;;9.31;83.10;99394.69;1620485;87;25749;-73
2022/09/19 08:35:39;;;;;;;16.85;10.70;;;;;;;9.26;82.82;99385.42;1617833;87;27599;-73
2022/09/19 08:38:08;;;;;;;15.20;9.90;;;;;;;9.25;82.79;99394.08;1627001;87;25507;-70
2022/09/19 08:40:51;;;;;;;16.45;10.08;;;;;;;9.19;82.83;99396.70;1622880;87;25705;-72
2022/09/19 08:43:28;;;;;;;16.57;10.23;;;;;;;9.21;83.24;99401.25;1615396;88;26265;-69
2022/09/19 08:46:18;;;;;;;17.27;9.93;;;;;;;9.21;83.13;99400.44;1618472;87;25671;-68
2022/09/19 08:49:24;;;;;;;15.08;9.73;;;;;;;9.14;83.03;99411.18;1638371;85;27411;-69
2022/09/19 08:52:08;;;;;;;14.18;9.40;;;;;;;9.14;83.25;99416.58;1640699;85;25982;-71
2022/09/19 08:54:46;;;;;;;16.93;9.38;;;;;;;9.12;83.28;99420.69;1623205;86;25802;-74
2022/09/19 08:57:25;;;;;;;19.50;10.43;;;;;;;9.03;83.29;99419.36;1641696;85;25741;-72
2022/09/19 09:00:03;;;;;;;16.57;10.58;;;;;;;8.98;83.42;99418.18;1640984;86;25496;-71
2022/09/19 09:02:53;;;;;;;20.52;11.70;;;;;;;8.94;83.75;99415.33;1615932;88;27373;-72
2022/09/19 09:05:56;;;;;;;19.73;14.03;;;;;;;8.91;83.86;99424.05;1614972;87;25658;-71
2022/09/19 09:08:43;;;;;;;16.12;10.65;;;;;;;8.92;84.42;99421.61;1621928;87;25783;-71
2022/09/19 09:11:50;;;;;;;16.35;11.20;;;;;;;8.94;84.64;99418.03;1615954;87;26258;-71
2022/09/19 09:18:30;;;;;;;15.48;10.58;;;;;;;8.90;84.81;99421.11;1617627;87;27964;-72
2022/09/19 09:21:18;;;;;;;;;;;;;;;8.92;84.99;99423.48;1636535;87;25790;-73
2022/09/19 09:23:48;;;;;;;15.53;8.78;;;;;;;8.94;85.14;99423.42;1625425;87;25869;-72
2022/09/19 09:26:28;;;;;;;14.58;10.23;;;;;;;8.90;84.79;99425.72;1641020;87;25698;-71
2022/09/19 09:29:17;;;;;;;15.23;10.38;;;;;;;8.88;84.98;99424.69;1639172;87;25805;-72
2022/09/19 09:32:15;;;;;;;14.13;9.83;;;;;;;8.93;85.55;99430.48;1629192;87;28166;-71
2022/09/19 09:34:48;;;;;;;15.63;10.15;;;;;;;8.96;85.58;99432.55;1612269;87;26095;-71
2022/09/19 09:37:23;;;;;;;17.45;11.63;;;;;;;9.01;85.91;99435.08;1582673;89;25798;-73
2022/09/19 09:40:01;;;;;;;18.52;10.60;;;;;;;9.06;86.02;99436.27;1590464;89;26385;-73
2022/09/19 09:42:37;;;;;;;15.25;10.82;;;;;;;9.10;86.03;99435.84;1566687;90;25518;-70
2022/09/19 09:45:30;;;;;;;17.48;10.98;;;;;;;9.15;86.27;99439.73;1565041;90;27572;-71
2022/09/19 09:48:24;;;;;;;15.05;10.30;;;;;;;9.23;86.09;99441.38;1560651;91;25671;-71
2022/09/19 09:51:13;;;;;;;13.72;10.53;;;;;;;9.30;86.38;99434.39;1617634;87;25794;-71
2022/09/19 09:53:51;;;;;;;16.40;9.28;;;;;;;9.41;86.20;99438.88;1638211;85;25779;-71
2022/09/19 09:56:43;;;;;;;13.18;8.50;;;;;;;9.50;85.95;99437.50;1647848;85;25440;-72
2022/09/19 10:05:33;;;;;;;10.93;7.00;;;;;;;9.58;85.00;99458.28;1610068;88;25758;-73
2022/09/19 10:08:22;;;;;;;8.50;6.70;;;;;;;9.59;84.63;99459.10;1629708;86;26266;-73
2022/09/19 10:10:53;;;;;;;8.65;6.65;;;;;;;9.60;84.56;99456.05;1625918;87;25502;-73
2022/09/19 10:13:28;;;;;;;7.90;6.65;;;;;;;9.66;84.82;99458.82;1617987;87;32241;-71
2022/09/19 10:16:02;;;;;;;9.73;6.33;;;;;;;9.68;84.56;99470.09;1615165;87;25956;-73
2022/09/19 10:18:33;;;;;;;8.25;6.22;;;;;;;9.69;84.65;99465.50;1577767;89;25796;-72
2022/09/19 10:20:59;;;;;;;9.55;5.33;;;;;;;9.71;84.21;99465.96;1580138;90;25875;-73
2022/09/19 10:23:32;;;;;;;9.18;5.90;;;;;;;9.71;84.39;99474.84;1565478;90;25779;-73
2022/09/19 10:26:14;;;;;;;9.28;6.42;;;;;;;9.72;84.44;99471.58;1614090;87;27372;-73
2022/09/19 10:28:43;;;;;;;9.48;6.05;;;;;;;9.76;84.97;99476.59;1621945;87;25833;-72
2022/09/19 10:31:34;;;;;;;9.10;6.15;;;;;;;9.80;85.05;99468.63;1590274;89;25768;-73
2022/09/19 10:34:06;;;;;;;7.78;6.25;;;;;;;9.88;85.78;99489.42;1578275;89;25808;-74
2022/09/19 10:36:37;;;;;;;7.65;6.17;;;;;;;9.97;85.86;99484.76;1591866;88;25810;-72
2022/09/19 10:39:17;;;;;;;11.33;7.92;;;;;;;10.04;85.59;99497.77;1595458;89;27911;-72
2022/09/19 10:41:45;;;;;;;8.88;6.12;;;;;;;10.07;85.82;99491.72;1594070;88;25728;-73
2022/09/19 10:44:23;;;;;;;6.90;5.92;;;;;;;10.12;86.24;99485.35;1577663;89;25649;-72
2022/09/19 10:46:55;;;;;;;9.05;7.10;;;;;;;10.15;85.76;99492.78;1616562;86;26181;-71
2022/09/19 10:49:26;;;;;;;10.72;7.03;;;;;;;10.18;86.09;99498.36;1657424;86;25594;-72
2022/09/19 10:51:56;;;;;;;9.63;6.40;;;;;;;10.22;86.38;99493.09;1660412;86;27347;-71
2022/09/19 10:54:42;;;;;;;8.98;6.47;;;;;;;10.32;87.16;99497.34;1642823;86;25746;-70
2022/09/19 10:57:40;;;;;;;9.13;6.80;;;;;;;10.37;86.71;99495.27;1644709;86;25668;-68
2022/09/19 11:00:21;;;;;;;10.43;7.62;;;;;;;10.41;86.30;99502.94;1660078;86;26253;-68
2022/09/19 11:03:06;;;;;;;10.63;5.87;;;;;;;10.45;86.62;99501.19;1657175;86;25817;-68
2022/09/19 11:05:36;;;;;;;10.50;6.50;;;;;;;10.49;86.34;99505.37;1655300;85;28101;-69
2022/09/19 11:08:08;;;;;;;8.38;6.35;;;;;;;10.53;86.37;99507.64;1663226;86;25738;-68
2022/09/19 11:10:47;;;;;;;13.20;9.00;;;;;;;10.54;86.24;99501.66;1657426;86;25642;-72
2022/09/19 11:13:19;;;;;;;10.75;6.33;;;;;;;10.56;86.29;99511.63;1604718;89;25841;-73
2022/09/19 11:16:17;;;;;;;7.47;6.12;;;;;;;10.57;86.33;99510.48;1604829;86;25702;-73
2022/09/19 11:19:02;;;;;;;8.30;5.42;;;;;;;10.54;85.72;99520.05;1610644;87;27484;-71
2022/09/19 11:21:32;;;;;;;9.40;6.50;;;;;;;10.50;85.64;99513.70;1575999;90;27084;-73
2022/09/19 11:24:18;;;;;;;10.93;6.80;;;;;;;10.45;85.52;99514.70;1589949;87;25679;-73
2022/09/19 11:27:01;;;;;;;10.23;5.83;;;;;;;10.42;85.80;99516.70;1610870;89;25702;-75
2022/09/19 11:29:33;;;;;;;9.83;5.58;;;;;;;10.45;86.07;99516.05;1610125;89;25789;-71
2022/09/19 11:32:20;;;;;;;9.80;6.33;;;;;;;10.45;85.90;99516.59;1602192;89;27888;-71
2022/09/19 11:34:52;;;;;;;8.55;6.20;;;;;;;10.42;86.16;99515.89;1606741;89;25756;-71
2022/09/19 11:37:59;;;;;;;9.88;5.65;;;;;;;10.35;85.55;99522.38;1628007;86;25761;-73
2022/09/19 11:40:58;;;;;;;7.17;5.72;;;;;;;10.34;85.83;99518.88;1665595;86;25654;-73
2022/09/19 11:44:02;;;;;;;9.05;6.03;;;;;;;10.35;86.36;99524.53;1615103;87;25907;-72
2022/09/19 11:46:55;;;;;;;9.98;5.62;;;;;;;10.31;86.12;99522.77;1612600;87;28567;-73
2022/09/19 11:49:51;;;;;;;12.18;7.83;;;;;;;10.24;86.13;99518.66;1615757;88;25903;-72
2022/09/19 11:52:35;;;;;;;13.60;8.13;;;;;;;10.25;86.52;99518.91;1614845;87;25755;-71
2022/09/19 11:55:29;;;;;;;11.88;8.05;;;;;;;10.28;86.89;99520.15;1621866;88;25991;-72
2022/09/19 11:58:13;;;;;;;10.70;7.55;;;;;;;10.28;86.67;99525.55;1580716;90;25779;-70
2022/09/19 12:01:05;;;;;;;9.73;6.62;;;;;;;10.26;86.83;99518.33;1583619;89;27733;-72
2022/09/19 12:03:59;;;;;;;13.60;8.33;;;;;;;10.27;86.97;99527.47;1538352;92;25810;-70
2022/09/19 12:07:08;;;;;;;9.95;6.28;;;;;;;10.26;86.90;99526.44;1493380;94;25865;-71
2022/09/19 12:09:49;;;;;;;12.88;8.50;;;;;;;10.28;87.27;99527.72;1500433;94;26270;-71
2022/09/19 12:12:21;;;;;;;15.85;8.98;;;;;;;10.28;87.29;99530.42;1535806;92;25877;-71
2022/09/19 12:14:55;;;;;;;10.80;5.80;;;;;;;10.32;87.81;99529.23;1529462;92;27473;-73
2022/09/19 12:17:28;;;;;;;12.28;8.08;;;;;;;10.35;87.15;99526.42;1529438;91;26088;-75
2022/09/19 12:20:24;;;;;;;9.03;5.78;;;;;;;10.34;87.07;99524.86;1567160;90;25898;-73
2022/09/19 12:24:52;;;;;;;7.90;5.95;;;;;;;10.35;87.11;99532.64;1583329;89;26243;-73